Time;durP1;ratioP1;P1;durP2;ratioP2;P2;SDS_P1;SDS_P2;PMS_P1;PMS_P2;Temp;Humidity;BMP_temperature;BMP_pressure;BME280_temperature;BME280_humidity;BME280_pressure;Samples;Min_cycle;Max_cycle;Signal;HPM_P1;HPM_P2
2022/06/29 00:02:25;;;;;;;3.83;3.60;;;;;;;;;;4947691;29;20481;-90
2022/06/29 00:04:51;;;;;;;2.97;2.90;;;;;;;;;;4939494;28;20814;-90
2022/06/29 00:07:17;;;;;;;3.17;3.10;;;;;;;;;;4940927;29;20430;-90
2022/06/29 00:09:43;;;;;;;3.27;2.80;;;;;;;;;;4960809;28;20496;-90
2022/06/29 00:12:09;;;;;;;3.17;3.07;;;;;;;;;;4961612;28;20465;-90
2022/06/29 00:14:41;;;;;;;3.93;2.90;;;;;;;;;;4952234;29;20462;-90
2022/06/29 00:17:08;;;;;;;3.33;3.17;;;;;;;;;;4943730;29;20960;-92
2022/06/29 00:19:34;;;;;;;2.90;2.90;;;;;;;;;;4957336;28;20933;-90
2022/06/29 00:22:00;;;;;;;2.73;2.63;;;;;;;;;;4942409;29;20462;-90
2022/06/29 00:24:26;;;;;;;3.27;3.07;;;;;;;;;;4937598;29;20454;-91
2022/06/29 00:26:52;;;;;;;3.20;3.00;;;;;;;;;;4948194;29;20476;-90
2022/06/29 00:29:18;;;;;;;3.20;3.10;;;;;;;;;;4941039;29;20430;-89
2022/06/29 00:31:45;;;;;;;3.93;3.63;;;;;;;;;;4944507;29;20487;-89
2022/06/29 00:34:11;;;;;;;3.00;2.80;;;;;;;;;;4942214;29;20548;-90
2022/06/29 00:36:37;;;;;;;2.63;2.63;;;;;;;;;;4949726;28;21150;-92
2022/06/29 00:39:03;;;;;;;4.77;4.57;;;;;;;;;;4978800;28;20417;-90
2022/06/29 00:41:29;;;;;;;3.47;3.07;;;;;;;;;;4976647;28;20476;-90
2022/06/29 00:43:55;;;;;;;2.97;2.97;;;;;;;;;;4984739;28;20437;-90
2022/06/29 00:46:21;;;;;;;3.23;3.07;;;;;;;;;;4976595;28;20823;-90
2022/06/29 00:48:46;;;;;;;2.70;2.70;;;;;;;;;;4982333;28;20437;-90
2022/06/29 00:51:17;;;;;;;3.00;3.00;;;;;;;;;;4973540;28;20446;-90
2022/06/29 00:53:44;;;;;;;2.97;2.77;;;;;;;;;;4975759;28;20544;-90
2022/06/29 00:56:10;;;;;;;3.63;3.37;;;;;;;;;;4985670;28;20457;-89
2022/06/29 00:58:38;;;;;;;3.23;3.20;;;;;;;;;;4985032;28;20433;-90
2022/06/29 01:01:04;;;;;;;3.67;3.30;;;;;;;;;;4984492;28;20441;-90
2022/06/29 01:03:32;;;;;;;3.67;3.57;;;;;;;;;;4977521;28;20932;-90
2022/06/29 01:05:58;;;;;;;2.97;2.97;;;;;;;;;;4987719;28;20440;-90
2022/06/29 01:08:24;;;;;;;3.93;3.17;;;;;;;;;;4985599;28;20870;-90
2022/06/29 01:10:50;;;;;;;2.60;2.60;;;;;;;;;;4979969;28;20804;-90
2022/06/29 01:13:16;;;;;;;2.83;2.80;;;;;;;;;;4974845;28;20469;-90
2022/06/29 01:15:43;;;;;;;3.03;2.93;;;;;;;;;;4972183;28;20429;-89
2022/06/29 01:18:09;;;;;;;3.87;3.57;;;;;;;;;;4978695;28;21236;-89
2022/06/29 01:20:35;;;;;;;3.20;3.10;;;;;;;;;;4987840;28;20440;-90
2022/06/29 01:23:01;;;;;;;3.80;3.60;;;;;;;;;;4978635;28;20449;-89
2022/06/29 01:25:27;;;;;;;4.53;3.37;;;;;;;;;;4976728;28;20435;-89
2022/06/29 01:27:53;;;;;;;3.17;3.07;;;;;;;;;;4973114;28;20427;-90
2022/06/29 01:30:22;;;;;;;3.30;3.20;;;;;;;;;;4988958;28;20851;-90
2022/06/29 01:32:48;;;;;;;3.33;3.30;;;;;;;;;;4981221;28;20908;-90
2022/06/29 01:35:16;;;;;;;3.73;3.53;;;;;;;;;;4985461;28;20541;-90
2022/06/29 01:37:42;;;;;;;3.80;3.50;;;;;;;;;;4979017;28;20536;-89
2022/06/29 01:40:09;;;;;;;4.27;3.67;;;;;;;;;;4990097;28;20444;-90
2022/06/29 01:42:35;;;;;;;2.97;2.87;;;;;;;;;;4991637;28;20427;-90
2022/06/29 01:45:01;;;;;;;3.00;2.80;;;;;;;;;;4984439;28;20429;-89
2022/06/29 01:47:27;;;;;;;3.27;3.03;;;;;;;;;;4973004;28;20453;-90
2022/06/29 01:49:53;;;;;;;5.40;3.53;;;17.30;99.90;;;;;;4990704;28;20857;-89
2022/06/29 01:52:19;;;;;;;3.07;3.00;;;;;;;;;;4987881;28;20434;-89
2022/06/29 01:54:48;;;;;;;3.43;3.23;;;17.20;99.90;;;;;;4976280;28;20288;-90
2022/06/29 01:57:14;;;;;;;3.50;3.40;;;17.20;99.90;;;;;;4972501;28;20521;-89
2022/06/29 01:59:40;;;;;;;3.97;3.67;;;;;;;;;;4992294;28;20859;-91
2022/06/29 02:02:05;;;;;;;3.40;3.30;;;17.10;99.90;;;;;;4976205;28;20695;-90
2022/06/29 02:04:31;;;;;;;3.20;3.20;;;17.10;99.90;;;;;;4974312;28;20469;-91
2022/06/29 02:06:57;;;;;;;3.10;3.10;;;;;;;;;;4986324;28;20244;-91
2022/06/29 02:09:23;;;;;;;3.53;3.27;;;;;;;;;;5002891;28;20201;-92
2022/06/29 02:11:49;;;;;;;3.93;3.83;;;17.20;99.90;;;;;;4978106;28;20433;-88
2022/06/29 02:14:14;;;;;;;2.97;2.93;;;17.20;99.90;;;;;;4971382;28;20492;-88
2022/06/29 02:16:40;;;;;;;3.40;3.30;;;17.10;99.90;;;;;;4969348;28;20732;-88
2022/06/29 02:19:05;;;;;;;4.03;3.83;;;17.00;99.90;;;;;;4976267;28;20190;-88
2022/06/29 02:21:31;;;;;;;3.43;3.30;;;17.20;99.90;;;;;;4980772;28;20202;-88
2022/06/29 02:23:57;;;;;;;3.37;3.17;;;17.30;99.90;;;;;;4981937;28;20193;-88
2022/06/29 02:26:22;;;;;;;5.80;3.33;;;16.90;99.90;;;;;;4999418;28;20185;-88
2022/06/29 02:28:48;;;;;;;8.13;3.67;;;16.90;99.90;;;;;;4987339;28;20209;-88
2022/06/29 02:36:44;;;;;;;3.73;3.37;;;;;;;;;;4969074;28;20487;-89
2022/06/29 02:39:10;;;;;;;3.10;3.00;;;;;;;;;;4961325;28;20951;-88
2022/06/29 02:41:36;;;;;;;2.90;2.80;;;;;;;;;;4956743;28;20453;-88
2022/06/29 02:44:02;;;;;;;3.13;2.93;;;;;;;;;;4959110;28;20448;-88
2022/06/29 02:46:28;;;;;;;3.30;3.00;;;;;;;;;;4960260;28;20445;-89
2022/06/29 02:48:54;;;;;;;5.67;3.40;;;;;;;;;;4953115;28;21041;-88
2022/06/29 02:51:20;;;;;;;3.40;3.30;;;;;;;;;;4980917;28;20496;-89
2022/06/29 02:53:45;;;;;;;3.63;3.63;;;;;;;;;;4954665;28;20480;-88
2022/06/29 02:56:11;;;;;;;3.50;3.40;;;;;;;;;;4965056;28;20429;-88
2022/06/29 02:58:37;;;;;;;3.03;2.93;;;;;;;;;;4961315;28;20880;-89
2022/06/29 03:01:04;;;;;;;3.10;3.00;;;;;;;;;;4955876;28;20528;-89
2022/06/29 03:03:29;;;;;;;3.00;3.00;;;;;;;;;;4975266;28;20896;-89
2022/06/29 03:05:55;;;;;;;3.10;3.00;;;;;;;;;;4969787;28;20452;-88
2022/06/29 03:08:21;;;;;;;3.50;3.40;;;;;;;;;;4960130;28;20429;-88
2022/06/29 03:10:49;;;;;;;3.37;3.17;;;;;;;;;;4966253;28;20432;-87
2022/06/29 03:13:15;;;;;;;3.47;3.37;;;;;;;;;;4974018;28;20464;-87
2022/06/29 03:15:41;;;;;;;3.60;3.47;;;;;;;;;;4978366;28;20459;-87
2022/06/29 03:18:07;;;;;;;3.07;3.03;;;;;;;;;;4956118;28;20440;-87
2022/06/29 03:20:33;;;;;;;3.27;3.17;;;;;;;;;;4965236;28;20516;-86
2022/06/29 03:22:59;;;;;;;3.60;3.50;;;;;;;;;;4980951;28;20468;-87
2022/06/29 03:25:25;;;;;;;3.20;3.00;;;;;;;;;;4952059;28;20452;-87
2022/06/29 03:27:51;;;;;;;3.70;3.60;;;;;;;;;;4963663;28;20476;-87
2022/06/29 03:30:18;;;;;;;3.87;3.67;;;;;;;;;;4964941;28;20436;-87
2022/06/29 03:32:44;;;;;;;5.23;3.77;;;;;;;;;;4956716;28;20525;-87
2022/06/29 03:35:10;;;;;;;3.70;3.40;;;;;;;;;;4970076;28;20446;-87
2022/06/29 03:37:36;;;;;;;3.80;3.70;;;;;;;;;;4965270;28;20457;-87
2022/06/29 03:40:02;;;;;;;3.33;3.20;;;;;;;;;;4959287;28;20437;-88
2022/06/29 03:42:29;;;;;;;5.53;5.03;;;;;;;;;;4974149;28;20491;-87
2022/06/29 03:44:55;;;;;;;3.80;3.70;;;;;;;;;;4973656;28;20445;-88
2022/06/29 03:47:22;;;;;;;3.60;3.40;;;;;;;;;;4960662;28;20983;-88
2022/06/29 03:49:48;;;;;;;3.40;3.20;;;;;;;;;;4966736;28;20846;-87
2022/06/29 03:52:15;;;;;;;3.90;3.80;;;;;;;;;;4958004;28;20507;-87
2022/06/29 03:54:41;;;;;;;3.70;3.50;;;;;;;;;;4961579;28;20587;-87
2022/06/29 03:57:07;;;;;;;4.00;3.90;;;;;;;;;;4970394;28;20539;-87
2022/06/29 03:59:33;;;;;;;3.80;3.50;;;;;;;;;;4963431;28;20504;-87
2022/06/29 04:01:59;;;;;;;3.73;3.57;;;;;;;;;;4978527;28;20520;-87
2022/06/29 04:04:25;;;;;;;3.33;3.23;;;;;;;;;;4981183;28;20444;-88
2022/06/29 04:06:51;;;;;;;2.97;2.97;;;;;;;;;;4970421;28;20439;-87
2022/06/29 04:09:17;;;;;;;4.07;3.87;;;;;;;;;;4975587;28;20504;-87
2022/06/29 04:11:48;;;;;;;3.40;3.30;;;;;;;;;;4990002;28;20429;-88
2022/06/29 04:14:15;;;;;;;4.30;4.00;;;;;;;;;;4936091;29;20485;-88
2022/06/29 04:16:41;;;;;;;4.37;3.90;;;;;;;;;;4972006;28;20492;-88
2022/06/29 04:19:07;;;;;;;4.17;3.97;;;;;;;;;;4974208;28;20483;-87
2022/06/29 04:21:33;;;;;;;3.33;3.23;;;;;;;;;;4972681;28;20448;-87
2022/06/29 04:23:59;;;;;;;6.27;3.97;;;;;;;;;;4973491;28;20432;-87
2022/06/29 04:26:25;;;;;;;3.90;3.57;;;;;;;;;;4974898;28;20894;-87
2022/06/29 04:28:51;;;;;;;3.90;3.70;;;;;;;;;;4974854;28;20416;-88
2022/06/29 04:31:17;;;;;;;4.00;3.80;;;;;;;;;;4955175;28;20548;-87
2022/06/29 04:33:43;;;;;;;3.60;3.60;;;;;;;;;;4955341;28;20836;-88
2022/06/29 04:36:09;;;;;;;4.13;3.83;;;;;;;;;;4968457;28;21292;-87
2022/06/29 04:38:35;;;;;;;4.10;4.00;;;;;;;;;;4972939;28;20441;-88
2022/06/29 04:41:01;;;;;;;3.03;2.93;;;;;;;;;;4968420;28;20428;-89
2022/06/29 04:43:29;;;;;;;4.10;3.83;;;;;;;;;;4966795;28;20410;-88
2022/06/29 04:48:40;;;;;;;4.37;4.07;;;;;;;;;;4991404;28;20416;-87
2022/06/29 04:51:06;;;;;;;5.13;3.77;;;;;;;;;;4966917;28;20449;-88
2022/06/29 04:53:32;;;;;;;3.53;3.33;;;;;;;;;;4961812;28;20508;-89
2022/06/29 04:55:58;;;;;;;4.33;4.23;;;;;;;;;;4973275;28;20433;-88
2022/06/29 04:58:23;;;;;;;4.60;4.37;;;;;;;;;;4965785;28;20417;-88
2022/06/29 05:00:49;;;;;;;4.00;3.80;;;;;;;;;;4968485;28;20488;-89
2022/06/29 05:03:16;;;;;;;3.80;3.70;;;;;;;;;;4979331;28;20417;-88
2022/06/29 05:05:42;;;;;;;3.90;3.70;;;;;;;;;;4975474;28;20437;-89
2022/06/29 05:08:08;;;;;;;4.60;4.30;;;;;;;;;;4963318;28;20487;-87
2022/06/29 05:10:34;;;;;;;4.70;4.20;;;;;;;;;;4965701;28;21002;-89
2022/06/29 05:13:00;;;;;;;4.20;3.90;;;;;;;;;;4979920;28;20441;-90
2022/06/29 05:15:26;;;;;;;4.20;4.10;;;;;;;;;;4982043;28;20440;-88
2022/06/29 05:17:52;;;;;;;6.13;3.70;;;;;;;;;;4973094;28;20532;-88
2022/06/29 05:20:20;;;;;;;3.90;3.60;;;;;;;;;;4970646;28;20467;-88
2022/06/29 05:22:46;;;;;;;4.00;3.90;;;;;;;;;;4979429;28;20456;-88
2022/06/29 05:25:13;;;;;;;6.77;3.90;;;;;;;;;;4980686;28;20424;-88
2022/06/29 05:27:39;;;;;;;3.97;3.90;;;;;;;;;;4982488;28;20987;-88
2022/06/29 05:30:05;;;;;;;4.20;3.93;;;;;;;;;;4980537;28;20437;-87
2022/06/29 05:32:31;;;;;;;3.17;3.17;;;;;;;;;;4979926;28;20513;-87
2022/06/29 05:34:57;;;;;;;3.80;3.60;;;;;;;;;;4966530;28;20476;-89
2022/06/29 05:37:23;;;;;;;3.47;3.37;;;;;;;;;;4975617;28;20473;-90
2022/06/29 05:39:49;;;;;;;4.50;3.80;;;;;;;;;;4978909;28;20535;-89
2022/06/29 05:42:15;;;;;;;3.87;3.57;;;;;;;;;;4969891;28;20777;-89
2022/06/29 05:44:47;;;;;;;5.57;4.17;;;;;;;;;;4623539;28;9999894;-87
2022/06/29 05:47:14;;;;;;;3.80;3.70;;;;;;;;;;4971005;28;20248;-89
2022/06/29 05:49:40;;;;;;;4.10;3.90;;;;;;;;;;4974903;28;20528;-87
2022/06/29 05:52:07;;;;;;;3.93;3.83;;;;;;;;;;4961051;28;20449;-86
2022/06/29 05:54:33;;;;;;;6.63;3.60;;;;;;;;;;4971785;28;20484;-89
2022/06/29 05:56:59;;;;;;;5.70;4.50;;;;;;;;;;4973860;28;20556;-89
2022/06/29 05:59:25;;;;;;;3.93;3.80;;;;;;;;;;4980659;28;20432;-88
2022/06/29 06:01:52;;;;;;;4.40;4.20;;;;;;;;;;4965269;28;20424;-88
2022/06/29 06:04:18;;;;;;;4.33;3.83;;;;;;;;;;4964310;28;20525;-88
2022/06/29 06:06:46;;;;;;;3.97;3.77;;;;;;;;;;4956562;28;20575;-87
2022/06/29 06:09:13;;;;;;;4.40;4.03;;;;;;;;;;4971817;28;20423;-88
2022/06/29 06:11:47;;;;;;;4.30;4.10;;;;;;;;;;4946521;28;20515;-89
2022/06/29 06:14:13;;;;;;;6.83;4.93;;;;;;;;;;4952595;28;20897;-89
2022/06/29 06:16:39;;;;;;;5.13;4.63;;;;;;;;;;4972840;28;20810;-89
2022/06/29 06:19:04;;;;;;;4.90;4.57;;;;;;;;;;4981352;28;20409;-88
2022/06/29 06:21:30;;;;;;;9.97;5.00;;;;;;;;;;4957181;28;20436;-89
2022/06/29 06:23:56;;;;;;;7.43;4.87;;;;;;;;;;4987524;28;20439;-88
2022/06/29 06:26:22;;;;;;;7.30;4.97;;;;;;;;;;4966443;28;20524;-88
2022/06/29 06:28:51;;;;;;;13.20;5.93;;;;;;;;;;4964333;28;20497;-90
2022/06/29 06:31:17;;;;;;;10.33;5.03;;;;;;;;;;4957025;28;20765;-89
2022/06/29 06:33:43;;;;;;;9.13;5.03;;;;;;;;;;4963685;28;20469;-89
2022/06/29 06:36:11;;;;;;;10.67;5.20;;;;;;;;;;4958080;28;20916;-89
2022/06/29 06:38:37;;;;;;;7.43;5.30;;;;;;;;;;4972922;28;20412;-88
2022/06/29 06:43:48;;;;;;;5.77;4.37;;;;;;;;;;4986359;28;20476;-88
2022/06/29 06:46:14;;;;;;;11.33;5.03;;;;;;;;;;4966070;28;20448;-88
2022/06/29 06:48:58;;;;;;;5.43;4.80;;;;;;;;;;4981481;28;20543;-88
2022/06/29 06:51:27;;;;;;;5.00;4.60;;;;;;;;;;4966976;28;20455;-88
2022/06/29 06:53:53;;;;;;;5.13;3.00;;;;;;;;;;4967673;28;20460;-89
2022/06/29 06:56:20;;;;;;;2.50;2.40;;;;;;;;;;4962793;28;20449;-88
2022/06/29 06:58:46;;;;;;;2.60;2.60;;;;;;;;;;4974687;28;20527;-89
2022/06/29 07:01:12;;;;;;;3.37;3.10;;;;;;;;;;4962936;28;20435;-87
2022/06/29 07:03:38;;;;;;;3.70;3.70;;;;;;;;;;4975397;28;20453;-87
2022/06/29 07:06:09;;;;;;;3.40;3.20;;;;;;;;;;4995409;28;20515;-89
2022/06/29 07:08:36;;;;;;;3.53;3.43;;;;;;;;;;4944272;28;20441;-88
2022/06/29 07:11:05;;;;;;;4.77;4.27;;;;;;;;;;4964454;28;20953;-88
2022/06/29 07:13:35;;;;;;;7.07;3.60;;;;;;;;;;4957364;28;20560;-90
2022/06/29 07:16:03;;;;;;;5.30;4.60;;;;;;;;;;4963525;28;20828;-88
2022/06/29 07:18:29;;;;;;;3.80;3.70;;;;;;;;;;4966364;28;20543;-89
2022/06/29 07:20:55;;;;;;;4.50;4.07;;;;;;;;;;4971827;28;20464;-87
2022/06/29 07:23:24;;;;;;;5.70;4.00;;;;;;;;;;4966504;28;20491;-89
2022/06/29 07:25:50;;;;;;;5.20;4.80;;;;;;;;;;4976949;28;20908;-88
2022/06/29 07:28:16;;;;;;;3.90;3.70;;;;;;;;;;4961536;28;20527;-86
2022/06/29 07:30:43;;;;;;;11.33;10.30;;;;;;;;;;4989869;28;20441;-88
2022/06/29 07:33:09;;;;;;;4.73;3.53;;;;;;;;;;4957388;28;20473;-85
2022/06/29 07:35:36;;;;;;;3.97;3.77;;;;;;;;;;4969392;28;20445;-87
2022/06/29 07:38:02;;;;;;;4.03;3.83;;;;;;;;;;4973120;28;21115;-88
2022/06/29 07:40:28;;;;;;;3.23;3.13;;;;;;;;;;4981490;28;20432;-88
2022/06/29 07:42:54;;;;;;;3.10;3.00;;;;;;;;;;4983372;28;20437;-89
2022/06/29 07:45:20;;;;;;;4.03;3.40;;;;;;;;;;4978177;28;20524;-88
2022/06/29 07:47:48;;;;;;;2.97;2.97;;;;;;;;;;4980126;28;20436;-88
2022/06/29 07:50:14;;;;;;;3.43;3.13;;;;;;;;;;4981390;28;20449;-87
2022/06/29 07:52:42;;;;;;;2.87;2.73;;;;;;;;;;4980129;28;20468;-89
2022/06/29 07:55:08;;;;;;;3.20;3.10;;;;;;;;;;4976650;28;20565;-89
2022/06/29 07:57:36;;;;;;;4.23;4.10;;;;;;;;;;4986104;28;20461;-86
2022/06/29 08:00:06;;;;;;;3.47;3.20;;;;;;;;;;4978433;28;20497;-90
2022/06/29 08:02:32;;;;;;;3.40;3.30;;;;;;;;;;4989105;28;20809;-89
2022/06/29 08:04:59;;;;;;;3.77;3.60;;;;;;;;;;4985064;28;20445;-88
2022/06/29 08:07:25;;;;;;;4.83;4.30;;;;;;;;;;4983139;28;20484;-89
2022/06/29 08:10:01;;;;;;;3.33;3.23;;;;;;;;;;4977989;28;20432;-90
2022/06/29 08:12:34;;;;;;;4.13;3.93;;;;;;;;;;4985481;28;20447;-91
2022/06/29 08:15:01;;;;;;;3.43;3.33;;;;;;;;;;4979158;28;20552;-89
2022/06/29 08:17:27;;;;;;;3.57;3.50;;;;;;;;;;4984306;28;20491;-91
2022/06/29 08:19:53;;;;;;;4.33;3.67;;;;;;;;;;4999869;28;20440;-90
2022/06/29 08:22:20;;;;;;;4.90;4.50;;;;;;;;;;4988893;28;20521;-90
2022/06/29 08:24:46;;;;;;;4.67;4.07;;;;;;;;;;4995432;28;20452;-90
2022/06/29 08:27:12;;;;;;;3.77;3.67;;;;;;;;;;5005356;28;20437;-93
2022/06/29 08:29:38;;;;;;;3.50;3.30;;;;;;;;;;4995833;28;20432;-92
2022/06/29 08:32:04;;;;;;;3.83;3.53;;;;;;;;;;4989775;28;20532;-92
2022/06/29 08:34:34;;;;;;;4.00;3.63;;;;;;;;;;4977088;28;20485;-93
2022/06/29 08:37:01;;;;;;;4.83;3.73;;;;;;;;;;4996295;28;20463;-93
2022/06/29 08:39:27;;;;;;;3.77;3.47;;;;;;;;;;4992749;28;20412;-93
2022/06/29 08:41:56;;;;;;;3.50;3.20;;;;;;;;;;4986621;28;20575;-95
2022/06/29 08:44:22;;;;;;;3.17;2.97;;;;;;;;;;5009459;28;20641;-89
2022/06/29 08:46:48;;;;;;;6.50;3.40;;;;;;;;;;4985443;28;20445;-92
2022/06/29 08:49:15;;;;;;;3.80;3.60;;;;;;;;;;4990970;28;20419;-88
2022/06/29 08:51:42;;;;;;;4.13;3.80;;;;;;;;;;4971512;28;20526;-91
2022/06/29 08:54:34;;;;;;;3.20;3.10;;;;;;;;;;5002679;28;20546;-92
2022/06/29 08:57:01;;;;;;;3.92;3.83;;;;;;;;;;4283550;28;10000742;-88
2022/06/29 08:59:37;;;;;;;4.80;3.27;;;;;;;;;;4968852;28;20193;-90
2022/06/29 09:02:03;;;;;;;3.50;3.50;;;;;;;;;;4996567;28;20440;-92
2022/06/29 09:04:29;;;;;;;3.70;3.50;;;;;;;;;;4992546;28;20425;-92
2022/06/29 09:06:56;;;;;;;3.80;3.50;;;;;;;;;;4990641;28;20452;-91
2022/06/29 09:09:23;;;;;;;3.83;3.70;;;;;;;;;;4978161;28;20459;-92
2022/06/29 09:11:50;;;;;;;4.73;4.50;;;;;;;;;;4969816;28;20454;-91
2022/06/29 09:14:17;;;;;;;4.37;4.20;;;;;;;;;;4966552;28;20556;-92
2022/06/29 09:16:49;;;;;;;4.70;3.70;;;;;;;;;;4972098;28;20441;-91
2022/06/29 09:19:20;;;;;;;3.67;3.53;;;;;;;;;;4966746;28;20441;-89
2022/06/29 09:21:46;;;;;;;4.17;3.87;;;;;;;;;;4972712;28;20458;-91
2022/06/29 09:24:16;;;;;;;3.40;3.40;;;;;;;;;;4972616;28;21075;-92
2022/06/29 09:26:42;;;;;;;3.87;3.67;;;;;;;;;;4973917;28;20437;-90
2022/06/29 09:29:27;;;;;;;2.90;2.80;;;;;;;;;;4982895;28;20445;-93
2022/06/29 09:32:04;;;;;;;3.93;3.67;;;;;;;;;;4950001;28;20441;-93
2022/06/29 09:34:32;;;;;;;3.67;3.43;;;;;;;;;;4989401;28;20565;-91
2022/06/29 09:37:00;;;;;;;6.53;3.77;;;;;;;;;;4992587;28;20455;-93
2022/06/29 09:39:41;;;;;;;4.07;3.87;;;;;;;;;;5002158;28;20803;-94
2022/06/29 09:42:09;;;;;;;3.70;3.50;;;;;;;;;;4991063;28;20501;-94
2022/06/29 09:44:45;;;;;;;5.17;3.60;;;;;;;;;;5013441;28;20480;-95
2022/06/29 09:47:15;;;;;;;4.20;3.90;;;;;;;;;;5066858;23;20475;-92
2022/06/29 09:49:47;;;;;;;4.93;4.67;;;;;;;;;;4979282;28;20507;-91
2022/06/29 09:52:14;;;;;;;5.90;5.60;;;;;;;;;;4995093;28;20449;-90
2022/06/29 09:54:51;;;;;;;4.33;4.00;;;;;;;;;;5003649;28;20475;-91
2022/06/29 09:57:39;;;;;;;4.20;4.00;;;;;;;;;;4996346;28;20451;-95
2022/06/29 10:02:55;;;;;;;4.00;3.70;;;;;;;;;;5007788;28;20443;-91
2022/06/29 10:05:29;;;;;;;6.07;4.00;;;;;;;;;;4983749;28;20428;-91
2022/06/29 10:08:13;;;;;;;3.10;3.00;;;;;;;;;;4985683;28;20449;-91
2022/06/29 10:10:43;;;;;;;3.77;3.57;;;;;;;;;;5002011;28;20832;-91
2022/06/29 10:15:52;;;;;;;4.47;4.07;;;;;;;;;;5427869;22;20498;-92
2022/06/29 10:18:19;;;;;;;3.80;3.70;;;;;;;;;;4990554;28;20439;-92
2022/06/29 10:20:48;;;;;;;3.60;3.37;;;;;;;;;;5006383;28;20462;-92
2022/06/29 10:23:33;;;;;;;3.60;3.30;;;;;;;;;;4981161;28;20476;-93
2022/06/29 10:26:03;;;;;;;4.07;3.83;;;;;;;;;;4986077;28;20425;-92
2022/06/29 10:28:30;;;;;;;3.03;2.93;;;;;;;;;;4968319;28;20475;-93
2022/06/29 10:33:52;;;;;;;3.53;3.23;;;;;;;;;;4965355;28;20489;-91
2022/06/29 10:36:34;;;;;;;4.43;3.47;;;;;;;;;;4994488;28;20501;-90
2022/06/29 10:39:06;;;;;;;4.47;3.97;;;;;;;;;;4956007;28;20445;-92
2022/06/29 10:44:54;;;;;;;5.00;2.80;;;;;;;;;;4993722;28;20831;-90
2022/06/29 10:47:24;;;;;;;3.40;3.07;;;;;;;;;;4979507;28;20417;-93
2022/06/29 10:50:10;;;;;;;5.70;3.27;;;;;;;;;;4991911;28;20441;-88
2022/06/29 10:52:37;;;;;;;3.60;3.50;;;;;;;;;;4974588;28;20405;-92
2022/06/29 10:55:08;;;;;;;4.37;4.17;;;;;;;;;;5008860;28;20519;-90
2022/06/29 10:57:53;;;;;;;4.37;4.00;;;;;;;;;;4997406;28;20470;-93
2022/06/29 11:00:24;;;;;;;6.67;6.33;;;;;;;;;;4972694;28;20421;-92
2022/06/29 11:02:50;;;;;;;3.87;3.70;;;;;;;;;;4969545;28;20426;-92
2022/06/29 11:05:17;;;;;;;3.97;3.87;;;;;;;;;;4988367;28;20428;-89
2022/06/29 11:13:30;;;;;;;3.73;3.67;;;;;;;;;;4984807;28;20533;-92
2022/06/29 11:16:08;;;;;;;7.17;4.33;;;;;;;;;;4989008;28;20534;-92
2022/06/29 11:18:36;;;;;;;4.47;4.20;;;;;;;;;;4986584;28;20456;-90
2022/06/29 11:21:06;;;;;;;4.40;4.20;;;;;;;;;;4988533;28;20452;-93
2022/06/29 11:23:33;;;;;;;3.90;3.70;;;;;;;;;;4985275;28;20495;-92
2022/06/29 11:26:01;;;;;;;4.53;4.13;;;;;;;;;;5001684;28;20432;-91
2022/06/29 11:28:28;;;;;;;3.30;3.20;;;;;;;;;;4983968;28;20435;-92
2022/06/29 11:31:08;;;;;;;3.50;3.40;;;;;;;;;;4961200;28;20520;-93
2022/06/29 11:33:41;;;;;;;3.50;3.40;;;;;;;;;;4984272;28;20457;-94
2022/06/29 11:36:09;;;;;;;3.50;3.50;;;;;;;;;;4972711;29;20461;-94
2022/06/29 11:38:51;;;;;;;4.47;4.00;;;;;;;;;;4990295;28;20491;-89
2022/06/29 11:41:19;;;;;;;4.10;4.00;;;;;;;;;;4973277;29;20654;-93
2022/06/29 11:43:45;;;;;;;4.20;4.00;;;;;;;;;;4981891;28;20441;-93
2022/06/29 11:46:19;;;;;;;3.93;3.73;;;;;;;;;;4994399;28;20463;-91
2022/06/29 11:51:37;;;;;;;4.60;4.20;;;;;;;;;;5221987;23;20482;-93
2022/06/29 11:54:08;;;;;;;3.87;3.67;;;;;;;;;;5002295;28;20478;-91
2022/06/29 11:56:34;;;;;;;3.30;3.30;;;;;;;;;;4983486;28;20531;-89
2022/06/29 11:59:04;;;;;;;3.43;3.33;;;;;;;;;;4990637;28;20437;-91
2022/06/29 12:01:30;;;;;;;4.03;3.93;;;;;;;;;;4980771;28;20445;-92
2022/06/29 12:04:07;;;;;;;4.30;3.93;;;;;;;;;;5007008;28;20437;-94
2022/06/29 12:11:44;;;;;;;3.60;3.50;;;;;;;;;;1329624;26;20485;-89
2022/06/29 12:14:11;;;;;;;4.27;4.07;;;;;;;;;;4995989;28;20546;-89
2022/06/29 12:16:37;;;;;;;3.70;3.50;;;;;;;;;;5005649;28;20443;-90
2022/06/29 12:19:06;;;;;;;3.67;3.53;;;;;;;;;;4997051;28;20452;-89
2022/06/29 12:21:32;;;;;;;3.47;3.37;;;;;;;;;;5002120;28;20463;-89
2022/06/29 12:24:14;;;;;;;2.83;2.77;;;;;;;;;;5013389;28;20419;-90
2022/06/29 12:26:41;;;;;;;3.03;3.03;;;;;;;;;;4979894;28;20420;-90
2022/06/29 12:29:10;;;;;;;3.17;3.13;;;;;;;;;;5035246;28;20514;-89
2022/06/29 12:31:37;;;;;;;3.40;3.27;;;;;;;;;;5036058;28;20449;-90
2022/06/29 12:34:07;;;;;;;4.87;4.40;;;;;;;;;;4995053;28;20471;-90
2022/06/29 12:36:33;;;;;;;4.10;4.00;;;;;;;;;;5005920;28;20440;-88
2022/06/29 12:38:59;;;;;;;4.10;3.47;;;;;;;;;;5026179;28;20792;-88
2022/06/29 12:41:27;;;;;;;3.80;3.60;;;;;;;;;;5001955;28;20458;-89
2022/06/29 12:43:54;;;;;;;3.60;3.50;;;;;;;;;;5002291;28;20445;-90
2022/06/29 12:46:20;;;;;;;4.47;4.27;;;;;;;;;;4991748;28;20428;-92
2022/06/29 12:48:46;;;;;;;4.53;4.43;;;;;;;;;;5012949;28;20818;-89
2022/06/29 12:54:24;;;;;;;;;;;;;;;;;;;;;
2022/06/29 12:56:50;;;;;;;3.53;3.43;;;;;;;;;;4993442;28;20511;-90
2022/06/29 12:59:19;;;;;;;4.20;4.00;;;;;;;;;;5033659;28;20968;-91
2022/06/29 13:01:48;;;;;;;4.40;4.20;;;;;;;;;;5012621;28;20439;-89
2022/06/29 13:04:14;;;;;;;4.27;4.07;;;;;;;;;;5014517;28;21009;-87
2022/06/29 13:06:40;;;;;;;3.80;3.80;;;;;;;;;;5016353;28;20437;-89
2022/06/29 13:09:06;;;;;;;3.50;3.43;;;;;;;;;;5017842;28;20610;-90
2022/06/29 13:11:34;;;;;;;3.47;3.47;;;;;;;;;;5016036;28;20580;-91
2022/06/29 13:14:00;;;;;;;4.30;4.10;;;;;;;;;;5000037;28;20471;-90
2022/06/29 13:16:26;;;;;;;4.80;4.00;;;;;;;;;;5015036;28;20436;-90
2022/06/29 13:18:54;;;;;;;4.00;3.83;;;;;;;;;;4993907;28;20523;-89
2022/06/29 13:21:21;;;;;;;3.20;3.20;;;;;;;;;;5020410;28;20442;-89
2022/06/29 13:23:57;;;;;;;3.77;3.77;;;;;;;;;;5008522;28;20602;-91
2022/06/29 13:26:27;;;;;;;4.57;4.37;;;;;;;;;;4996347;28;20820;-89
2022/06/29 13:28:53;;;;;;;4.13;4.03;;;;;;;;;;5014823;28;20505;-89
2022/06/29 13:31:19;;;;;;;4.83;4.50;;;;;;;;;;5017235;28;20494;-88
2022/06/29 13:33:45;;;;;;;5.07;4.90;;;;;;;;;;5015031;28;20462;-91
2022/06/29 13:36:12;;;;;;;4.73;4.53;;;;;;;;;;5019705;28;20794;-90
2022/06/29 13:38:38;;;;;;;3.53;3.43;;;;;;;;;;5039915;28;20708;-91
2022/06/29 13:41:05;;;;;;;3.43;3.43;;;;;;;;;;5004285;28;20447;-91
2022/06/29 13:43:34;;;;;;;5.67;3.40;;;;;;;;;;5023486;28;20435;-91
2022/06/29 13:46:16;;;;;;;3.30;3.30;;;;;;;;;;5038079;28;20458;-89
2022/06/29 13:48:42;;;;;;;3.97;3.57;;;;;;;;;;4997111;28;20412;-88
2022/06/29 13:51:10;;;;;;;4.03;3.90;;;;;;;;;;5019948;28;20941;-91
2022/06/29 13:53:38;;;;;;;4.00;3.93;;;;;;;;;;5022350;28;20540;-89
2022/06/29 13:56:05;;;;;;;3.67;3.63;;;;;;;;;;5040244;28;20465;-91
2022/06/29 13:58:31;;;;;;;3.27;3.27;;;;;;;;;;5045474;28;20959;-88
2022/06/29 14:00:58;;;;;;;3.87;3.70;;;;;;;;;;5026853;28;20426;-89
2022/06/29 14:03:27;;;;;;;4.80;4.50;;;;;;;;;;5028186;28;20529;-91
2022/06/29 14:06:02;;;;;;;4.80;4.50;;;;;;;;;;5049484;28;20417;-88
2022/06/29 14:08:32;;;;;;;4.80;4.60;;;;;;;;;;5013655;28;20430;-89
2022/06/29 14:11:04;;;;;;;3.83;3.73;;;;;;;;;;5045382;28;20449;-91
2022/06/29 14:13:30;;;;;;;3.97;3.80;;;;;;;;;;5025069;28;20496;-90
2022/06/29 14:15:59;;;;;;;3.97;3.87;;;;;;;;;;5047015;28;20438;-88
2022/06/29 14:18:27;;;;;;;3.53;3.33;;;;;;;;;;5027135;28;20438;-91
2022/06/29 14:20:56;;;;;;;4.83;3.83;;;;;;;;;;5045562;28;20406;-90
2022/06/29 14:26:29;;;;;;;3.93;3.83;;;;;;;;;;5002506;28;20451;-89
2022/06/29 14:28:58;;;;;;;3.63;3.53;;;;;;;;;;5042284;28;20430;-89
2022/06/29 14:31:34;;;;;;;3.90;3.80;;;;;;;;;;5046089;28;20461;-90
2022/06/29 14:34:26;;;;;;;4.33;4.23;;;;;;;;;;4978593;28;20486;-90
2022/06/29 14:36:51;;;;;;;4.43;4.33;;;;;;;;;;5021793;28;20420;-93
2022/06/29 14:42:06;;;;;;;3.93;3.83;;;;;;;;;;5084280;22;20476;-91
2022/06/29 14:47:12;;;;;;;3.90;3.70;;;;;;;;;;4858878;22;20492;-93
2022/06/29 14:49:38;;;;;;;4.00;3.90;;;;;;;;;;5007422;28;20509;-91
2022/06/29 14:52:04;;;;;;;5.47;4.80;;;;;;;;;;5009591;28;20449;-90
2022/06/29 14:57:05;;;;;;;4.50;4.30;;;;;;;;;;5013740;28;20459;-92
2022/06/29 14:59:31;;;;;;;4.13;4.03;;;;;;;;;;5033356;28;20439;-90
2022/06/29 15:02:00;;;;;;;4.30;4.20;;;;;;;;;;5017652;28;20444;-91
2022/06/29 15:09:38;;;;;;;5.07;4.83;;;;;;;;;;5426361;23;20472;-90
2022/06/29 15:14:50;;;;;;;4.67;4.53;;;;;;;;;;5125160;22;20467;-92
2022/06/29 15:20:13;;;;;;;3.93;3.80;;;;;;;;;;4656189;22;20507;-93
2022/06/29 15:25:17;;;;;;;5.27;4.40;;;;;;;;;;5039578;22;20479;-91
2022/06/29 15:27:43;;;;;;;4.20;4.20;;;;;;;;;;5259938;22;20513;-92
2022/06/29 15:30:09;;;;;;;4.50;4.40;;;;;;;;;;4993197;28;20492;-93
2022/06/29 15:32:37;;;;;;;4.60;4.50;;;;;;;;;;4994176;28;20497;-93
2022/06/29 15:40:34;;;;;;;4.20;4.13;;;;;;;;;;4964147;29;20479;-90
2022/06/29 15:43:03;;;;;;;5.00;4.70;;;;;;;;;;4979966;28;20803;-90
2022/06/29 15:45:29;;;;;;;4.40;4.30;;;;;;;;;;4983602;28;20564;-91
2022/06/29 15:47:57;;;;;;;4.67;4.37;;;;;;;;;;4980655;28;20433;-92
2022/06/29 15:50:27;;;;;;;5.03;4.80;;;;;;;;;;4966745;28;20518;-91
2022/06/29 15:55:33;;;;;;;3.97;3.97;;;;;;;;;;5007403;28;20451;-92